createdAt,value
2023-03-25T00:03:17.829Z,1.77
2023-03-25T00:08:19.825Z,3.33
2023-03-25T00:13:22.192Z,3.43
2023-03-25T00:18:26.867Z,5.13
2023-03-25T00:23:30.380Z,2.93
2023-03-25T00:28:34.681Z,3.67
2023-03-25T00:33:37.032Z,5.97
2023-03-25T00:38:41.983Z,4.23
2023-03-25T00:43:45.525Z,8.27
2023-03-25T00:48:47.847Z,8.17
2023-03-25T00:53:55.716Z,4.43
2023-03-25T00:58:58.202Z,3.67
2023-03-25T01:04:01.611Z,4.27
2023-03-25T01:09:07.058Z,5.33
2023-03-25T01:14:13.568Z,3.03
2023-03-25T01:19:15.983Z,9.23
2023-03-25T01:24:18.751Z,7.90
2023-03-25T01:29:21.375Z,7.73
2023-03-25T01:34:24.238Z,8.43
2023-03-25T01:39:27.710Z,3.63
2023-03-25T01:44:29.733Z,2.67
2023-03-25T01:49:39.288Z,5.33
2023-03-25T01:54:43.239Z,5.73
2023-03-25T01:59:45.702Z,4.20
2023-03-25T02:05:14.148Z,6.40
2023-03-25T02:10:17.402Z,6.83
2023-03-25T02:15:20.658Z,5.73
2023-03-25T02:20:44.259Z,8.23
2023-03-25T02:26:05.456Z,6.30
2023-03-25T02:31:25.443Z,3.30
2023-03-25T02:36:52.475Z,3.53
2023-03-25T02:42:18.097Z,6.00
2023-03-25T02:47:24.195Z,6.97
2023-03-25T02:52:27.238Z,9.53
2023-03-25T02:57:34.777Z,3.97
2023-03-25T03:02:37.578Z,5.57
2023-03-25T03:07:45.695Z,7.57
2023-03-25T03:12:53.754Z,6.57
2023-03-25T03:18:17.935Z,6.30
2023-03-25T03:23:29.672Z,6.77
2023-03-25T03:28:47.271Z,6.37
2023-03-25T03:33:55.406Z,13.07
2023-03-25T03:39:10.379Z,6.57
2023-03-25T03:44:15.712Z,6.33
2023-03-25T03:49:22.089Z,10.13
2023-03-25T03:54:32.159Z,7.50
2023-03-25T03:59:48.949Z,5.97
2023-03-25T04:04:53.907Z,9.03
2023-03-25T04:10:03.414Z,11.53
2023-03-25T04:15:06.894Z,12.33
2023-03-25T04:20:13.566Z,7.63
2023-03-25T04:25:15.659Z,6.47
2023-03-25T04:30:18.043Z,7.60
2023-03-25T04:35:20.748Z,5.03
2023-03-25T04:40:25.642Z,8.73
2023-03-25T04:45:28.814Z,5.43
2023-03-25T04:50:31.764Z,11.60
2023-03-25T04:55:34.638Z,11.43
2023-03-25T05:00:36.513Z,9.80
2023-03-25T05:05:39.129Z,5.50
2023-03-25T05:10:43.167Z,8.63
2023-03-25T05:15:45.086Z,6.37
2023-03-25T05:20:50.832Z,7.77
2023-03-25T05:25:53.183Z,8.27
2023-03-25T05:30:55.401Z,4.17
2023-03-25T05:35:57.544Z,10.50
2023-03-25T05:41:00.342Z,8.83
2023-03-25T05:46:04.831Z,10.30
2023-03-25T05:51:18.434Z,6.50
2023-03-25T05:56:23.118Z,7.30
2023-03-25T06:01:33.318Z,9.17
2023-03-25T06:06:35.957Z,11.77
2023-03-25T06:11:38.469Z,7.73
2023-03-25T06:16:40.986Z,11.23
2023-03-25T06:21:43.551Z,7.90
2023-03-25T06:26:45.421Z,13.70
2023-03-25T06:31:47.520Z,9.40
2023-03-25T06:36:50.096Z,12.20
2023-03-25T06:41:52.212Z,16.20
2023-03-25T06:47:02.526Z,6.27
2023-03-25T06:52:24.156Z,8.60
2023-03-25T06:57:26.228Z,14.43
2023-03-25T07:02:28.348Z,6.47
2023-03-25T07:07:30.793Z,13.37
2023-03-25T07:12:34.496Z,13.40
2023-03-25T07:17:36.470Z,12.77
2023-03-25T07:22:38.637Z,10.53
2023-03-25T07:27:40.907Z,9.03
2023-03-25T07:32:50.750Z,15.93
2023-03-25T07:37:52.893Z,9.60
2023-03-25T07:42:54.884Z,7.87
2023-03-25T07:48:01.434Z,9.73
2023-03-25T07:53:04.048Z,9.43
2023-03-25T07:58:06.383Z,13.67
2023-03-25T08:03:11.534Z,10.70
2023-03-25T08:08:15.197Z,13.00
2023-03-25T08:13:17.392Z,10.50
2023-03-25T08:18:20.721Z,14.63
2023-03-25T08:23:23.421Z,11.67
2023-03-25T08:28:27.213Z,13.37
2023-03-25T08:33:39.502Z,12.97
2023-03-25T08:38:42.099Z,14.93
2023-03-25T08:43:45.207Z,14.20
2023-03-25T08:48:50.302Z,14.13
2023-03-25T08:53:52.420Z,13.98
2023-03-25T08:58:56.436Z,15.75
2023-03-25T09:03:58.596Z,10.63
2023-03-25T09:09:00.692Z,10.90
2023-03-25T09:14:03.943Z,15.10
2023-03-25T09:19:05.954Z,14.73
2023-03-25T09:24:09.223Z,12.37
2023-03-25T09:29:11.230Z,15.00
2023-03-25T09:34:15.726Z,14.57
2023-03-25T09:39:18.319Z,19.17
2023-03-25T09:44:50.492Z,15.73
2023-03-25T09:50:00.720Z,9.83
2023-03-25T09:55:08.173Z,15.27
2023-03-25T10:00:17.869Z,20.57
2023-03-25T10:05:29.941Z,15.37
2023-03-25T10:10:55.585Z,12.88
2023-03-25T10:16:21.674Z,16.97
2023-03-25T10:21:33.625Z,15.23
2023-03-25T10:26:44.671Z,17.27
2023-03-25T10:31:54.612Z,20.37
2023-03-25T10:37:00.231Z,15.73
2023-03-25T10:42:29.885Z,16.10
2023-03-25T10:47:36.972Z,12.70
2023-03-25T10:52:39.001Z,11.67
2023-03-25T10:57:41.458Z,14.63
2023-03-25T11:02:43.910Z,11.90
2023-03-25T11:07:56.216Z,16.52
2023-03-25T11:13:03.793Z,10.75
2023-03-25T11:18:08.808Z,11.38
2023-03-25T11:23:32.556Z,11.65
2023-03-25T11:28:50.193Z,10.38
2023-03-25T11:34:10.764Z,16.17
2023-03-25T11:39:28.238Z,15.77
2023-03-25T11:44:32.862Z,11.03
2023-03-25T11:49:38.828Z,15.53
2023-03-25T11:54:42.398Z,10.63
2023-03-25T11:59:49.795Z,9.43
2023-03-25T12:05:02.810Z,8.97
2023-03-25T12:10:06.628Z,16.40
2023-03-25T12:15:11.655Z,11.97
2023-03-25T12:20:25.784Z,10.83
2023-03-25T12:25:43.078Z,8.43
2023-03-25T12:30:45.101Z,13.13
2023-03-25T12:36:23.763Z,12.17
2023-03-25T12:41:33.566Z,11.52
2023-03-25T12:47:08.360Z,10.05
2023-03-25T12:52:22.410Z,14.73
2023-03-25T12:57:55.846Z,15.25
2023-03-25T13:03:22.630Z,13.70
2023-03-25T13:08:28.284Z,14.40
2023-03-25T13:13:33.607Z,11.90
2023-03-25T13:18:42.788Z,10.48
2023-03-25T13:23:52.515Z,11.63
2023-03-25T13:28:59.872Z,13.13
2023-03-25T13:34:27.844Z,14.57
2023-03-25T13:39:45.096Z,13.20
2023-03-25T13:44:50.585Z,12.38
2023-03-25T13:49:58.288Z,8.38
2023-03-25T13:55:21.653Z,13.45
2023-03-25T14:00:47.576Z,11.35
2023-03-25T14:06:09.816Z,9.48
2023-03-25T14:11:17.717Z,8.18
2023-03-25T14:16:25.612Z,11.40
2023-03-25T14:21:36.894Z,8.60
2023-03-25T14:26:46.785Z,8.60
2023-03-25T14:32:37.686Z,9.90
2023-03-25T14:37:39.771Z,10.73
2023-03-25T14:42:57.423Z,9.68
2023-03-25T14:48:00.804Z,6.43
2023-03-25T14:53:12.731Z,8.88
2023-03-25T14:58:23.717Z,14.63
2023-03-25T15:03:35.128Z,9.13
2023-03-25T15:08:40.937Z,8.83
2023-03-25T15:13:47.593Z,8.95
2023-03-25T15:18:49.829Z,8.52
2023-03-25T15:24:03.694Z,12.03
2023-03-25T15:29:24.416Z,10.20
2023-03-25T15:35:03.666Z,12.13
2023-03-25T15:40:08.882Z,13.80
2023-03-25T15:45:52.311Z,10.60
2023-03-25T15:51:32.301Z,13.20
2023-03-25T15:56:41.760Z,11.07
2023-03-25T16:01:48.308Z,12.67
2023-03-25T16:06:54.242Z,10.17
2023-03-25T16:12:01.652Z,8.13
2023-03-25T16:17:07.910Z,13.80
2023-03-25T16:22:26.133Z,17.00
2023-03-25T16:27:36.694Z,11.90
2023-03-25T16:32:38.817Z,10.80
2023-03-25T16:37:40.862Z,14.77
2023-03-25T16:42:43.099Z,15.40
2023-03-25T16:47:46.933Z,10.87
2023-03-25T16:52:51.054Z,14.87
2023-03-25T16:57:53.599Z,14.37
2023-03-25T17:02:57.032Z,15.83
2023-03-25T17:08:04.877Z,20.10
2023-03-25T17:13:09.731Z,11.70
2023-03-25T17:18:16.587Z,14.73
2023-03-25T17:23:43.313Z,15.33
2023-03-25T17:28:51.595Z,20.40
2023-03-25T17:34:18.911Z,14.07
2023-03-25T17:39:27.842Z,13.57
2023-03-25T17:44:42.784Z,17.63
2023-03-25T17:49:44.754Z,16.33
2023-03-25T17:54:46.988Z,20.73
2023-03-25T17:59:49.070Z,20.20
2023-03-25T18:04:51.629Z,14.50
2023-03-25T18:09:54.526Z,18.93
2023-03-25T18:14:56.584Z,19.70
2023-03-25T18:19:58.567Z,12.70
2023-03-25T18:25:01.630Z,24.30
2023-03-25T18:30:29.509Z,16.83
2023-03-25T18:35:31.468Z,18.33
2023-03-25T18:40:35.997Z,23.97
2023-03-25T18:45:38.045Z,25.90
2023-03-25T18:50:46.225Z,21.17
2023-03-25T18:55:49.883Z,18.17
2023-03-25T19:00:53.193Z,18.37
2023-03-25T19:05:55.381Z,23.40
2023-03-25T19:11:04.601Z,23.30
2023-03-25T19:16:10.735Z,19.47
2023-03-25T19:21:20.278Z,23.77
2023-03-25T19:26:22.752Z,27.60
2023-03-25T19:31:25.956Z,19.73
2023-03-25T19:36:28.080Z,26.57
2023-03-25T19:41:30.190Z,21.33
2023-03-25T19:46:33.720Z,21.63
2023-03-25T19:51:35.849Z,21.20
2023-03-25T19:56:38.191Z,13.97
2023-03-25T20:01:43.146Z,18.93
2023-03-25T20:06:45.402Z,21.73
2023-03-25T20:11:47.787Z,18.10
2023-03-25T20:16:49.744Z,19.13
2023-03-25T20:21:51.848Z,22.73
2023-03-25T20:26:53.763Z,20.83
2023-03-25T20:31:57.788Z,29.77
2023-03-25T20:37:01.726Z,24.23
2023-03-25T20:42:04.660Z,22.77
2023-03-25T20:47:06.705Z,21.10
2023-03-25T20:52:09.983Z,24.27
2023-03-25T20:57:12.814Z,24.00
2023-03-25T21:02:18.224Z,22.20
2023-03-25T21:07:22.329Z,22.60
2023-03-25T21:12:32.842Z,19.10
2023-03-25T21:17:43.632Z,21.53
2023-03-25T21:22:45.674Z,15.73
2023-03-25T21:27:47.846Z,16.93
2023-03-25T21:32:49.957Z,24.13
2023-03-25T21:37:52.460Z,28.77
2023-03-25T21:42:54.376Z,22.27
2023-03-25T21:47:56.510Z,24.60
2023-03-25T21:53:03.218Z,27.00
2023-03-25T21:58:05.754Z,20.67
2023-03-25T22:03:12.070Z,20.47
2023-03-25T22:08:14.222Z,24.30
2023-03-25T22:13:16.132Z,19.70
2023-03-25T22:18:18.194Z,17.67
2023-03-25T22:23:21.748Z,14.33
2023-03-25T22:28:23.963Z,28.17
2023-03-25T22:33:26.709Z,26.80
2023-03-25T22:38:28.610Z,24.13
2023-03-25T22:43:30.680Z,26.70
2023-03-25T22:48:33.870Z,29.43
2023-03-25T22:53:35.922Z,24.47
2023-03-25T22:58:38.431Z,22.33
2023-03-25T23:03:41.286Z,26.97
2023-03-25T23:08:44.161Z,28.47
2023-03-25T23:13:50.328Z,19.67
2023-03-25T23:18:53.041Z,17.83
2023-03-25T23:24:00.167Z,18.20
2023-03-25T23:29:05.514Z,21.37
2023-03-25T23:34:10.076Z,21.30
2023-03-25T23:39:16.036Z,16.83
2023-03-25T23:44:18.407Z,21.17
2023-03-25T23:49:20.446Z,18.50
2023-03-25T23:54:22.453Z,20.43
2023-03-25T23:59:24.438Z,9.13
